Time;durP1;ratioP1;P1;durP2;ratioP2;P2;SDS_P1;SDS_P2;PMS_P1;PMS_P2;Temp;Humidity;BMP_temperature;BMP_pressure;BME280_temperature;BME280_humidity;BME280_pressure;Samples;Min_cycle;Max_cycle;Signal;HPM_P1;HPM_P2
2022/12/29 00:01:13;;;;;;;;;;;-1.20;99.90;;;;;;5114774;28;19908;-72
2022/12/29 00:03:39;;;;;;;;;;;-1.20;99.90;;;;;;5115927;28;19919;-72
2022/12/29 00:06:05;;;;;;;;;;;-1.20;99.90;;;;;;5097666;28;19908;-72
2022/12/29 00:08:39;;;;;;;;;;;-1.30;99.90;;;;;;5115891;28;19912;-72
2022/12/29 00:11:06;;;;;;;;;;;-1.30;99.90;;;;;;5115812;28;19912;-72
2022/12/29 00:16:16;;;;;;;;;;;-1.50;99.90;;;;;;5116079;28;19957;-72
2022/12/29 00:18:41;;;;;;;;;;;-1.60;99.90;;;;;;5115702;28;19912;-72
2022/12/29 00:35:08;;;;;;;;;;;-1.70;99.90;;;;;;5095171;28;20378;-71
2022/12/29 00:45:51;;;;;;;;;;;-1.80;99.90;;;;;;5097973;28;19962;-71
2022/12/29 00:49:29;;;;;;;;;;;-1.80;99.90;;;;;;5094703;28;19920;-71
2022/12/29 00:51:02;;;;;;;;;;;-1.80;99.90;;;;;;5094514;28;19912;-71
2022/12/29 00:53:27;;;;;;;;;;;-1.80;99.90;;;;;;5094713;28;19961;-72
2022/12/29 00:55:53;;;;;;;;;;;-1.80;99.90;;;;;;5094657;28;19965;-71
2022/12/29 00:58:18;;;;;;;;;;;-1.80;99.90;;;;;;5094775;28;19916;-71
2022/12/29 01:00:44;;;;;;;;;;;-1.80;99.90;;;;;;5095132;28;19912;-72
2022/12/29 01:03:09;;;;;;;;;;;-1.80;99.90;;;;;;5094323;28;19919;-71
2022/12/29 01:05:38;;;;;;;;;;;-1.80;99.90;;;;;;5094423;28;20430;-71
2022/12/29 01:08:03;;;;;;;;;;;-1.90;99.90;;;;;;5094668;28;19915;-71
2022/12/29 01:10:29;;;;;;;;;;;-1.90;99.90;;;;;;5094314;28;19912;-71
2022/12/29 01:12:54;;;;;;;;;;;-2.00;99.90;;;;;;5094043;28;19912;-71
2022/12/29 01:15:20;;;;;;;;;;;-2.00;99.90;;;;;;5094285;28;19912;-71
2022/12/29 01:17:46;;;;;;;;;;;-2.10;99.90;;;;;;5094495;28;19942;-71
2022/12/29 01:20:11;;;;;;;;;;;-2.00;99.90;;;;;;5094718;28;19930;-71
2022/12/29 01:22:37;;;;;;;;;;;-2.00;99.90;;;;;;5094063;28;19912;-73
2022/12/29 01:25:03;;;;;;;;;;;-2.00;99.90;;;;;;5094338;28;19963;-69
2022/12/29 01:27:29;;;;;;;;;;;-2.10;99.90;;;;;;5094052;28;19916;-72
2022/12/29 01:29:54;;;;;;;;;;;-2.00;99.90;;;;;;5094045;28;19912;-71
2022/12/29 01:32:20;;;;;;;;;;;-2.00;99.90;;;;;;5075723;28;20014;-71
2022/12/29 01:34:46;;;;;;;;;;;-2.10;99.90;;;;;;5094705;28;19920;-70
2022/12/29 01:37:11;;;;;;;;;;;-2.10;99.90;;;;;;5094039;28;19913;-70
2022/12/29 01:39:37;;;;;;;;;;;-2.00;99.90;;;;;;5094233;28;20003;-70
2022/12/29 01:42:02;;;;;;;;;;;-2.00;99.90;;;;;;5075779;28;19916;-70
2022/12/29 01:44:43;;;;;;;;;;;-2.00;99.90;;;;;;5094175;28;19908;-70
2022/12/29 01:47:09;;;;;;;;;;;-2.00;99.90;;;;;;5094230;28;20328;-70
2022/12/29 01:49:35;;;;;;;;;;;-2.00;99.90;;;;;;5094172;28;19943;-70
2022/12/29 01:52:03;;;;;;;;;;;-2.00;99.90;;;;;;5093763;28;20317;-70
2022/12/29 01:54:33;;;;;;;;;;;-2.00;99.90;;;;;;5093700;28;20394;-70
2022/12/29 01:57:00;;;;;;;;;;;-2.00;99.90;;;;;;5096420;28;19915;-70
2022/12/29 01:59:29;;;;;;;;;;;-2.00;99.90;;;;;;5098250;28;19908;-70
2022/12/29 02:01:54;;;;;;;;;;;-2.00;99.90;;;;;;5097835;28;19991;-70
2022/12/29 02:04:22;;;;;;;;;;;-2.10;99.90;;;;;;5097845;28;20375;-70
2022/12/29 02:06:55;;;;;;;;;;;-2.00;99.90;;;;;;5097901;28;19915;-70
2022/12/29 02:09:21;;;;;;;;;;;-2.00;99.90;;;;;;5079672;28;19908;-70
2022/12/29 02:11:47;;;;;;;;;;;-2.10;99.90;;;;;;5098278;28;19924;-70
2022/12/29 02:14:13;;;;;;;;;;;-2.10;99.90;;;;;;5079465;28;19916;-70
2022/12/29 02:16:39;;;;;;;;;;;-2.10;99.90;;;;;;5098011;28;20268;-70
2022/12/29 02:19:36;;;;;;;;;;;-2.20;99.90;;;;;;5097768;28;19916;-70
2022/12/29 02:22:08;;;;;;;;;;;-2.20;99.90;;;;;;5041617;28;19908;-70
2022/12/29 02:24:52;;;;;;;;;;;-2.20;99.90;;;;;;5097516;28;20064;-70
2022/12/29 02:27:36;;;;;;;;;;;-2.20;99.90;;;;;;5097741;28;20006;-70
2022/12/29 02:30:01;;;;;;;;;;;-2.20;99.90;;;;;;5114464;28;19919;-70
2022/12/29 02:32:35;;;;;;;;;;;-2.20;99.90;;;;;;5117602;28;19915;-70
2022/12/29 02:35:01;;;;;;;;;;;-2.20;99.90;;;;;;5117827;28;19918;-70
2022/12/29 02:37:33;;;;;;;;;;;-2.20;99.90;;;;;;5117638;28;20323;-70
2022/12/29 02:40:10;;;;;;;;;;;-2.30;99.90;;;;;;5117630;28;19914;-70
2022/12/29 02:42:39;;;;;;;;;;;-2.30;99.90;;;;;;5118127;28;19994;-70
2022/12/29 02:45:09;;;;;;;;;;;-2.30;99.90;;;;;;5117801;28;19915;-70
2022/12/29 02:47:38;;;;;;;;;;;-2.40;99.90;;;;;;5117438;28;20383;-70
2022/12/29 02:50:11;;;;;;;;;;;-2.40;99.90;;;;;;5115812;28;20302;-70
2022/12/29 02:52:46;;;;;;;;;;;-2.40;99.90;;;;;;5117194;28;20261;-70
2022/12/29 02:55:12;;;;;;;;;;;-2.40;99.90;;;;;;5117253;28;20416;-70
2022/12/29 02:57:37;;;;;;;;;;;-2.40;99.90;;;;;;5117235;28;19912;-70
2022/12/29 03:00:07;;;;;;;;;;;-2.40;99.90;;;;;;5099276;28;19918;-70
2022/12/29 03:02:59;;;;;;;;;;;-2.40;99.90;;;;;;5099136;28;19908;-70
2022/12/29 03:05:33;;;;;;;;;;;-2.40;99.90;;;;;;5085700;28;19911;-70
2022/12/29 03:08:06;;;;;;;;;;;-2.40;99.90;;;;;;5097310;28;19914;-70
2022/12/29 03:10:41;;;;;;;;;;;-2.40;99.90;;;;;;5117330;28;20291;-70
2022/12/29 03:16:12;;;;;;;;;;;-2.40;99.90;;;;;;5116998;28;19992;-70
2022/12/29 03:18:57;;;;;;;;;;;-2.50;99.90;;;;;;5116867;28;20352;-70
2022/12/29 03:22:26;;;;;;;;;;;-2.50;99.90;;;;;;5116243;28;19982;-70
2022/12/29 03:24:12;;;;;;;;;;;-2.50;99.90;;;;;;5116552;28;19914;-70
2022/12/29 03:26:38;;;;;;;;;;;-2.50;99.90;;;;;;5116677;28;19912;-70
2022/12/29 03:29:05;;;;;;;;;;;-2.50;99.90;;;;;;5116654;28;20276;-69
2022/12/29 03:31:31;;;;;;;;;;;-2.60;99.90;;;;;;5116548;28;19912;-70
2022/12/29 03:33:57;;;;;;;;;;;-2.60;99.90;;;;;;5098056;28;19930;-70
2022/12/29 03:36:37;;;;;;;;;;;-2.70;99.90;;;;;;5116871;28;19998;-70
2022/12/29 03:39:07;;;;;;;;;;;-2.80;99.90;;;;;;5116888;28;19999;-70
2022/12/29 03:41:34;;;;;;;;;;;-2.80;99.90;;;;;;5116469;28;19942;-70
2022/12/29 03:43:59;;;;;;;;;;;-2.80;99.90;;;;;;5116301;28;19916;-70
2022/12/29 03:46:25;;;;;;;;;;;-2.90;99.90;;;;;;5116317;28;19912;-70
2022/12/29 03:48:50;;;;;;;;;;;-2.90;99.90;;;;;;5116194;28;20347;-70
2022/12/29 03:51:16;;;;;;;;;;;-2.90;99.90;;;;;;5116572;28;20402;-70
2022/12/29 03:53:42;;;;;;;;;;;-2.80;99.90;;;;;;5116097;28;19941;-70
2022/12/29 03:56:07;;;;;;;;;;;-2.90;99.90;;;;;;5116105;28;19912;-70
2022/12/29 03:58:33;;;;;;;;;;;-2.90;99.90;;;;;;5116104;28;20240;-70
2022/12/29 04:00:58;;;;;;;;;;;-2.90;99.90;;;;;;5097914;28;19947;-70
2022/12/29 04:03:24;;;;;;;;;;;-2.90;99.90;;;;;;5097783;28;19912;-70
2022/12/29 04:05:49;;;;;;;;;;;-2.90;99.90;;;;;;5115969;28;19915;-69
2022/12/29 04:08:15;;;;;;;;;;;-2.90;99.90;;;;;;5116236;28;19951;-70
2022/12/29 04:10:40;;;;;;;;;;;-2.90;99.90;;;;;;5116080;28;19908;-70
2022/12/29 04:13:06;;;;;;;;;;;-2.90;99.90;;;;;;5115652;28;20014;-70
2022/12/29 04:15:31;;;;;;;;;;;-2.90;99.90;;;;;;5116010;28;19912;-70
2022/12/29 04:17:57;;;;;;;;;;;-2.90;99.90;;;;;;5115680;28;19918;-70
2022/12/29 04:23:07;;;;;;;;;;;-2.90;99.90;;;;;;5115851;28;19937;-70
2022/12/29 04:25:33;;;;;;;;;;;-2.90;99.90;;;;;;5113786;28;20407;-70
2022/12/29 04:27:59;;;;;;;;;;;-2.90;99.90;;;;;;5076942;28;19912;-70
2022/12/29 04:30:24;;;;;;;;;;;-2.90;99.90;;;;;;5076931;28;19908;-71
2022/12/29 04:32:50;;;;;;;;;;;-2.90;99.90;;;;;;5076481;28;19982;-70
2022/12/29 04:35:16;;;;;;;;;;;-3.00;99.90;;;;;;5094925;28;19908;-70
2022/12/29 04:37:41;;;;;;;;;;;-3.00;99.90;;;;;;5076769;28;20225;-70
2022/12/29 04:40:07;;;;;;;;;;;-3.00;99.90;;;;;;5094848;28;20346;-70
2022/12/29 04:42:33;;;;;;;;;;;-3.10;99.90;;;;;;5095087;28;19909;-70
2022/12/29 04:44:58;;;;;;;;;;;-3.10;99.90;;;;;;5076756;28;19912;-70
2022/12/29 04:47:24;;;;;;;;;;;-3.10;99.90;;;;;;5076621;28;19961;-69
2022/12/29 04:49:49;;;;;;;;;;;-3.10;99.90;;;;;;5094664;28;19923;-70
2022/12/29 04:52:15;;;;;;;;;;;-3.10;99.90;;;;;;5094568;28;20368;-70
2022/12/29 04:54:40;;;;;;;;;;;-3.10;99.90;;;;;;5094357;28;19916;-70
2022/12/29 04:57:06;;;;;;;;;;;-3.10;99.90;;;;;;5097618;28;19912;-70
2022/12/29 04:59:32;;;;;;;;;;;-3.00;99.90;;;;;;5094496;28;20445;-70
2022/12/29 05:01:57;;;;;;;;;;;-3.00;99.90;;;;;;5059680;28;19912;-70
2022/12/29 05:04:23;;;;;;;;;;;-3.00;99.90;;;;;;5094758;28;19915;-70
2022/12/29 05:06:48;;;;;;;;;;;-3.00;99.90;;;;;;5094692;28;19912;-69
2022/12/29 05:09:14;;;;;;;;;;;-3.00;99.90;;;;;;5094367;28;20015;-70
2022/12/29 05:11:39;;;;;;;;;;;-2.90;99.90;;;;;;5094293;28;20280;-70
2022/12/29 05:14:05;;;;;;;;;;;-2.90;99.90;;;;;;5094406;28;19916;-70
2022/12/29 05:16:30;;;;;;;;;;;-2.90;99.90;;;;;;5094297;28;19912;-70
2022/12/29 05:18:56;;;;;;;;;;;-2.90;99.90;;;;;;5094252;28;20329;-70
2022/12/29 05:21:22;;;;;;;;;;;-2.80;99.90;;;;;;5094143;28;19919;-70
2022/12/29 05:23:47;;;;;;;;;;;-2.80;99.90;;;;;;5094115;28;19931;-70
2022/12/29 05:26:13;;;;;;;;;;;-2.80;99.90;;;;;;5100036;28;19919;-70
2022/12/29 05:28:38;;;;;;;;;;;-2.80;99.90;;;;;;5114159;28;19955;-70
2022/12/29 05:31:04;;;;;;;;;;;-2.80;99.90;;;;;;5113399;28;19915;-70
2022/12/29 05:33:29;;;;;;;;;;;-2.80;99.90;;;;;;5114055;28;19923;-70
2022/12/29 05:35:55;;;;;;;;;;;-2.70;99.90;;;;;;5114184;28;20290;-70
2022/12/29 05:38:21;;;;;;;;;;;-2.80;99.90;;;;;;5114163;28;19908;-70
2022/12/29 05:40:46;;;;;;;;;;;-2.80;99.90;;;;;;5114118;28;19919;-70
2022/12/29 05:43:12;;;;;;;;;;;-2.80;99.90;;;;;;5095671;28;19965;-70
2022/12/29 05:45:37;;;;;;;;;;;-2.80;99.90;;;;;;5114052;28;19919;-70
2022/12/29 05:48:03;;;;;;;;;;;-2.80;99.90;;;;;;5095152;28;19908;-71
2022/12/29 05:50:29;;;;;;;;;;;-2.80;99.90;;;;;;5114010;28;19939;-70
2022/12/29 05:52:54;;;;;;;;;;;-2.80;99.90;;;;;;5113875;28;19964;-70
2022/12/29 05:55:20;;;;;;;;;;;-2.80;99.90;;;;;;5114037;28;19919;-70
2022/12/29 05:57:46;;;;;;;;;;;-2.90;99.90;;;;;;5114133;28;19915;-70
2022/12/29 06:00:12;;;;;;;;;;;-2.80;99.90;;;;;;5113877;28;19930;-69
2022/12/29 06:02:37;;;;;;;;;;;-2.80;99.90;;;;;;5115518;28;19916;-70
2022/12/29 06:05:03;;;;;;;;;;;-2.80;99.90;;;;;;5113929;28;20053;-70
2022/12/29 06:07:28;;;;;;;;;;;-2.80;99.90;;;;;;5127662;28;19912;-69
2022/12/29 06:09:54;;;;;;;;;;;-2.80;99.90;;;;;;5113923;28;19908;-70
2022/12/29 06:12:20;;;;;;;;;;;-2.70;99.90;;;;;;5113763;28;20280;-69
2022/12/29 06:14:45;;;;;;;;;;;-2.70;99.90;;;;;;5113727;28;19916;-70
2022/12/29 06:17:11;;;;;;;;;;;-2.70;99.90;;;;;;5095598;28;19912;-70
2022/12/29 06:19:36;;;;;;;;;;;-2.70;99.90;;;;;;5113360;28;19915;-70
2022/12/29 06:22:02;;;;;;;;;;;-2.70;99.90;;;;;;5095281;28;19911;-70
2022/12/29 06:24:28;;;;;;;;;;;-2.70;99.90;;;;;;5113690;28;19954;-69
2022/12/29 06:26:53;;;;;;;;;;;-2.60;99.90;;;;;;5113683;28;19912;-69
2022/12/29 06:29:20;;;;;;;;;;;-2.60;99.90;;;;;;5122587;28;19919;-70
2022/12/29 06:31:46;;;;;;;;;;;-2.60;99.90;;;;;;5093899;28;20485;-70
2022/12/29 06:34:12;;;;;;;;;;;-2.50;99.90;;;;;;5113749;28;19998;-70
2022/12/29 06:36:38;;;;;;;;;;;-2.50;99.90;;;;;;5113750;28;19908;-70
2022/12/29 06:39:03;;;;;;;;;;;-2.50;99.90;;;;;;5113670;28;19911;-70
2022/12/29 06:41:29;;;;;;;;;;;-2.50;99.90;;;;;;5114075;28;19912;-69
2022/12/29 06:43:54;;;;;;;;;;;-2.50;99.90;;;;;;5137803;27;19959;-69
2022/12/29 06:46:21;;;;;;;;;;;-2.40;99.90;;;;;;5138344;27;20006;-70
2022/12/29 06:48:47;;;;;;;;;;;-2.40;99.90;;;;;;5120291;27;20002;-69
2022/12/29 06:51:12;;;;;;;;;;;-2.50;99.90;;;;;;5120120;27;20324;-69
2022/12/29 06:53:38;;;;;;;;;;;-2.40;99.90;;;;;;5137771;27;19923;-70
2022/12/29 06:56:04;;;;;;;;;;;-2.50;99.90;;;;;;5119437;27;19911;-69
2022/12/29 06:58:29;;;;;;;;;;;-2.50;99.90;;;;;;5137751;27;20002;-69
2022/12/29 07:00:55;;;;;;;;;;;-2.50;99.90;;;;;;5138140;27;19915;-69
2022/12/29 07:03:21;;;;;;;;;;;-2.50;99.90;;;;;;5137660;27;19937;-69
2022/12/29 07:05:46;;;;;;;;;;;-2.50;99.90;;;;;;5137687;27;19921;-69
2022/12/29 07:08:12;;;;;;;;;;;-2.50;99.90;;;;;;5137740;27;19914;-69
2022/12/29 07:10:37;;;;;;;;;;;-2.50;99.90;;;;;;5137619;27;19926;-69
2022/12/29 07:13:03;;;;;;;;;;;-2.50;99.90;;;;;;5119042;27;19958;-69
2022/12/29 07:15:28;;;;;;;;;;;-2.50;99.90;;;;;;5137534;27;19911;-69
2022/12/29 07:17:54;;;;;;;;;;;-2.50;99.90;;;;;;5137502;27;19911;-69
2022/12/29 07:20:20;;;;;;;;;;;-2.50;99.90;;;;;;5137746;27;20014;-70
2022/12/29 07:22:47;;;;;;;;;;;-2.50;99.90;;;;;;5137315;27;19951;-69
2022/12/29 07:25:12;;;;;;;;;;;-2.50;99.90;;;;;;5119009;27;20365;-69
2022/12/29 07:27:38;;;;;;;;;;;-2.60;99.90;;;;;;5137909;27;19907;-69
2022/12/29 07:30:04;;;;;;;;;;;-2.60;99.90;;;;;;5137545;27;19911;-70
2022/12/29 07:32:32;;;;;;;;;;;-2.60;99.90;;;;;;5137244;27;19920;-69
2022/12/29 07:34:57;;;;;;;;;;;-2.60;99.90;;;;;;5137616;27;19911;-69
2022/12/29 07:37:23;;;;;;;;;;;-2.60;99.90;;;;;;5137135;27;20394;-69
2022/12/29 07:39:48;;;;;;;;;;;-2.60;99.90;;;;;;5137083;27;19964;-69
2022/12/29 07:42:14;;;;;;;;;;;-2.60;99.90;;;;;;5136970;27;19912;-69
2022/12/29 07:44:39;;;;;;;;;;;-2.60;99.90;;;;;;5112849;27;19912;-69
2022/12/29 07:47:05;;;;;;;;;;;-2.60;99.90;;;;;;5095940;28;19916;-69
2022/12/29 07:49:30;;;;;;;;;;;-2.50;99.90;;;;;;5096224;28;19913;-69
2022/12/29 07:51:56;;;;;;;;;;;-2.50;99.90;;;;;;5080622;28;19916;-70
2022/12/29 07:54:22;;;;;;;;;;;-2.50;99.90;;;;;;5079354;28;20024;-70
2022/12/29 07:56:47;;;;;;;;;;;-2.40;99.90;;;;;;5096159;28;20025;-70
2022/12/29 07:59:13;;;;;;;;;;;-2.40;99.90;;;;;;5095697;28;19961;-70
2022/12/29 08:01:38;;;;;;;;;;;-2.30;99.90;;;;;;5077781;28;19908;-71
2022/12/29 08:04:04;;;;;;;;;;;-2.30;99.90;;;;;;5096144;28;19919;-70
2022/12/29 08:06:30;;;;;;;;;;;-2.20;99.90;;;;;;5095589;28;20447;-70
2022/12/29 08:08:56;;;;;;;;;;;-2.10;99.90;;;;;;5095497;28;19973;-70
2022/12/29 08:11:22;;;;;;;;;;;-2.00;99.90;;;;;;5095505;28;19958;-70
2022/12/29 08:13:48;;;;;;;;;;;-1.90;99.90;;;;;;5095286;28;19956;-70
2022/12/29 08:16:13;;;;;;;;;;;-1.80;99.90;;;;;;5095421;28;19914;-70
2022/12/29 08:18:39;;;;;;;;;;;-1.70;99.90;;;;;;5077186;28;19912;-69
2022/12/29 08:21:05;;;;;;;;;;;-1.60;99.90;;;;;;5095278;28;19955;-69
2022/12/29 08:23:31;;;;;;;;;;;-1.60;99.90;;;;;;5095445;28;19990;-71
2022/12/29 08:26:00;;;;;;;;;;;-1.50;99.90;;;;;;5095381;28;20344;-71
2022/12/29 08:28:26;;;;;;;;;;;-1.40;99.90;;;;;;5077007;28;20365;-69
2022/12/29 08:30:51;;;;;;;;;;;-1.40;99.90;;;;;;5095411;28;19951;-71
2022/12/29 08:33:17;;;;;;;;;;;-1.30;99.90;;;;;;5095390;28;19931;-72
2022/12/29 08:35:42;;;;;;;;;;;-1.20;99.90;;;;;;5095022;28;19931;-71
2022/12/29 08:38:08;;;;;;;;;;;-1.20;99.90;;;;;;5095527;28;19918;-70
2022/12/29 08:40:33;;;;;;;;;;;-1.20;99.90;;;;;;5094888;28;20380;-71
2022/12/29 08:42:59;;;;;;;;;;;-1.10;99.90;;;;;;5094792;28;19943;-71
2022/12/29 08:45:25;;;;;;;;;;;-1.10;99.90;;;;;;5094790;28;20292;-70
2022/12/29 08:47:50;;;;;;;;;;;-1.00;99.90;;;;;;5092770;28;19918;-71
2022/12/29 08:50:16;;;;;;;;;;;-1.00;99.90;;;;;;5092647;28;19919;-71
2022/12/29 08:52:41;;;;;;;;;;;-1.00;99.90;;;;;;5095015;28;19915;-70
2022/12/29 08:55:07;;;;;;;;;;;-0.90;99.90;;;;;;5094855;28;20335;-70
2022/12/29 08:57:32;;;;;;;;;;;-0.80;99.90;;;;;;5095302;28;19912;-71
2022/12/29 08:59:58;;;;;;;;;;;-0.70;99.90;;;;;;5094536;28;19919;-70
2022/12/29 09:02:23;;;;;;;;;;;-0.60;99.90;;;;;;5097088;28;19912;-70
2022/12/29 09:04:49;;;;;;;;;;;-0.60;99.90;;;;;;5094478;28;19916;-70
2022/12/29 09:07:15;;;;;;;;;;;-0.50;99.90;;;;;;5094744;28;20364;-71
2022/12/29 09:09:40;;;;;;;;;;;-0.40;99.90;;;;;;5094708;28;19961;-71
2022/12/29 09:12:06;;;;;;;;;;;-0.40;99.90;;;;;;5076386;28;20296;-71
2022/12/29 09:14:31;;;;;;;;;;;-0.30;99.90;;;;;;5108074;28;19912;-71
2022/12/29 09:19:41;;;;;;;;;;;-0.10;99.90;;;;;;5115194;28;19919;-71
2022/12/29 09:22:06;;;;;;;;;;;0.00;99.90;;;;;;5114508;28;20279;-71
2022/12/29 09:24:32;;;;;;;;;;;0.10;99.90;;;;;;5113286;28;19911;-70
2022/12/29 09:26:57;;;;;;;;;;;0.20;99.90;;;;;;5112693;28;19911;-71
2022/12/29 09:29:23;;;;;;;;;;;0.20;99.90;;;;;;5114489;28;19907;-71
2022/12/29 09:31:49;;;;;;;;;;;0.30;99.90;;;;;;5114472;28;19919;-71
2022/12/29 09:34:15;;;;;;;;;;;0.30;99.90;;;;;;5114494;28;20325;-71
2022/12/29 09:36:41;;;;;;;;;;;0.40;99.90;;;;;;5114394;28;19912;-71
2022/12/29 09:39:06;;;;;;;;;;;0.50;99.90;;;;;;5114460;28;19916;-72
2022/12/29 09:41:32;;;;;;;;;;;0.50;99.90;;;;;;5114382;28;19919;-71
2022/12/29 09:43:57;;;;;;;;;;;0.60;99.90;;;;;;5114209;28;19958;-71
2022/12/29 09:46:27;;;;;;;;;;;0.60;99.90;;;;;;5096060;28;19908;-71
2022/12/29 09:49:11;;;;;;;;;;;0.70;99.90;;;;;;5114507;28;19986;-72
2022/12/29 09:51:37;;;;;;;;;;;0.80;99.90;;;;;;5114166;28;19970;-72
2022/12/29 09:54:38;;;;;;;;;;;0.90;99.90;;;;;;5112218;28;19912;-71
2022/12/29 09:57:04;;;;;;;;;;;1.00;99.90;;;;;;5011756;28;19916;-71
2022/12/29 09:59:41;;;;;;;;;;;1.10;99.90;;;;;;5077251;28;19915;-71
2022/12/29 10:02:20;;;;;;;;;;;1.20;99.90;;;;;;5103917;28;19912;-71
2022/12/29 10:04:45;;;;;;;;;;;1.30;99.90;;;;;;5110885;28;19908;-71
2022/12/29 10:07:11;;;;;;;;;;;1.30;99.90;;;;;;5114083;28;19912;-71
2022/12/29 10:09:36;;;;;;;;;;;1.40;99.90;;;;;;5114407;28;19994;-71
2022/12/29 10:12:21;;;;;;;;;;;1.50;99.90;;;;;;5114004;28;19908;-71
2022/12/29 10:14:55;;;;;;;;;;;1.50;99.90;;;;;;5117920;28;19917;-72
2022/12/29 10:17:35;;;;;;;;;;;1.60;99.90;;;;;;5113613;28;19908;-72
2022/12/29 10:20:20;;;;;;;;;;;1.60;99.90;;;;;;5096801;28;19950;-72
2022/12/29 10:22:51;;;;;;;;;;;1.70;99.90;;;;;;5115771;28;19915;-72
2022/12/29 10:25:21;;;;;;;;;;;1.70;99.90;;;;;;5114525;28;19915;-71
2022/12/29 10:27:48;;;;;;;;;;;1.80;99.90;;;;;;5116377;28;19915;-72
2022/12/29 10:30:14;;;;;;;;;;;1.90;99.90;;;;;;5103246;28;19918;-72
2022/12/29 10:32:45;;;;;;;;;;;1.90;99.90;;;;;;5097671;28;19973;-72
2022/12/29 10:35:24;;;;;;;;;;;2.10;99.90;;;;;;5103226;28;20311;-71
2022/12/29 10:37:55;;;;;;;;;;;2.20;99.90;;;;;;5115682;28;20355;-72
2022/12/29 10:40:37;;;;;;;;;;;2.30;99.90;;;;;;5116539;28;19911;-72
2022/12/29 10:43:11;;;;;;;;;;;2.40;99.90;;;;;;5115778;28;19908;-71
2022/12/29 10:45:37;;;;;;;;;;;2.50;99.90;;;;;;5097181;28;20003;-71
2022/12/29 10:48:05;;;;;;;;;;;2.60;99.90;;;;;;5114468;28;19982;-71
2022/12/29 10:50:31;;;;;;;;;;;2.70;99.90;;;;;;5112753;28;19912;-71
2022/12/29 10:53:01;;;;;;;;;;;2.80;99.90;;;;;;5111982;28;19916;-71
2022/12/29 10:55:37;;;;;;;;;;;2.80;99.90;;;;;;5109813;28;19920;-72
2022/12/29 10:58:05;;;;;;;;;;;2.90;99.90;;;;;;5110270;28;19933;-71
2022/12/29 11:00:31;;;;;;;;;;;2.90;99.90;;;;;;5105161;28;20050;-71
2022/12/29 11:03:15;;;;;;;;;;;2.90;99.90;;;;;;5099622;28;19957;-71
2022/12/29 11:05:52;;;;;;;;;;;2.90;99.90;;;;;;5115191;28;19927;-71
2022/12/29 11:08:19;;;;;;;;;;;2.90;99.90;;;;;;5089629;28;19977;-71
2022/12/29 11:10:46;;;;;;;;;;;2.90;99.90;;;;;;5096871;28;20390;-71
2022/12/29 11:13:16;;;;;;;;;;;2.90;99.90;;;;;;5100415;28;19912;-71
2022/12/29 11:15:46;;;;;;;;;;;2.90;99.90;;;;;;5103086;28;19912;-71
2022/12/29 11:18:20;;;;;;;;;;;2.90;99.90;;;;;;5115599;28;19912;-71
2022/12/29 11:20:46;;;;;;;;;;;2.90;99.90;;;;;;5115653;28;19931;-71
2022/12/29 11:23:22;;;;;;;;;;;2.90;99.90;;;;;;5117204;28;20364;-71
2022/12/29 11:26:08;;;;;;;;;;;2.90;99.90;;;;;;5115589;28;20328;-71
2022/12/29 11:28:33;;;;;;;;;;;3.00;99.90;;;;;;5101446;28;20372;-75
2022/12/29 11:31:01;;;;;;;;;;;3.00;99.90;;;;;;5116850;28;19950;-76
2022/12/29 11:33:34;;;;;;;;;;;3.00;99.90;;;;;;5116421;28;19972;-76
2022/12/29 11:36:05;;;;;;;;;;;3.10;99.90;;;;;;5116936;28;19952;-76
2022/12/29 11:38:36;;;;;;;;;;;3.20;99.90;;;;;;5116688;28;19908;-75
2022/12/29 11:41:03;;;;;;;;;;;3.20;99.90;;;;;;5115486;28;20251;-74
2022/12/29 11:43:34;;;;;;;;;;;3.30;99.90;;;;;;5100621;28;20321;-75
2022/12/29 11:46:00;;;;;;;;;;;3.30;99.90;;;;;;5094163;28;19908;-74
2022/12/29 11:48:28;;;;;;;;;;;3.30;99.90;;;;;;5093944;28;20360;-74
2022/12/29 11:50:55;;;;;;;;;;;3.30;99.90;;;;;;5093908;28;19909;-74
2022/12/29 11:53:21;;;;;;;;;;;3.40;99.90;;;;;;5093747;28;19912;-74
2022/12/29 11:55:55;;;;;;;;;;;3.40;99.90;;;;;;5096046;28;19974;-75
2022/12/29 11:58:28;;;;;;;;;;;3.40;99.90;;;;;;5096359;28;19966;-74
2022/12/29 12:00:55;;;;;;;;;;;3.50;99.90;;;;;;5112536;28;19912;-74
2022/12/29 12:03:22;;;;;;;;;;;3.50;99.90;;;;;;5116032;28;20045;-74
2022/12/29 12:05:54;;;;;;;;;;;3.50;99.90;;;;;;5116339;28;20056;-74
2022/12/29 12:08:22;;;;;;;;;;;3.60;99.90;;;;;;5102318;28;19919;-74
2022/12/29 12:10:52;;;;;;;;;;;3.60;99.90;;;;;;5077374;28;20390;-74
2022/12/29 12:13:41;;;;;;;;;;;3.60;99.90;;;;;;5095495;28;20279;-74
2022/12/29 12:16:18;;;;;;;;;;;3.60;99.90;;;;;;5081852;28;19916;-74
2022/12/29 12:19:00;;;;;;;;;;;3.70;99.90;;;;;;5096825;28;21218;-73
2022/12/29 12:21:38;;;;;;;;;;;3.80;99.90;;;;;;5097665;28;19954;-73
2022/12/29 12:24:22;;;;;;;;;;;3.90;99.90;;;;;;5115576;28;19955;-73
2022/12/29 12:26:59;;;;;;;;;;;3.90;99.90;;;;;;5106858;28;20470;-73
2022/12/29 12:29:38;;;;;;;;;;;4.00;99.90;;;;;;5095480;28;19914;-73
2022/12/29 12:32:12;;;;;;;;;;;4.00;99.90;;;;;;5095017;28;19912;-73
2022/12/29 12:34:41;;;;;;;;;;;4.10;99.90;;;;;;5095357;28;20431;-72
2022/12/29 12:37:18;;;;;;;;;;;4.20;99.90;;;;;;5094977;28;19908;-73
2022/12/29 12:40:02;;;;;;;;;;;4.20;99.90;;;;;;5094848;28;19985;-73
2022/12/29 12:42:31;;;;;;;;;;;4.30;99.90;;;;;;5094871;28;19915;-73
2022/12/29 12:44:59;;;;;;;;;;;4.30;99.90;;;;;;5076991;28;19917;-73
2022/12/29 12:47:57;;;;;;;;;;;4.40;99.90;;;;;;5095084;28;19915;-73
2022/12/29 12:50:44;;;;;;;;;;;4.40;99.90;;;;;;5049938;28;19915;-72
2022/12/29 12:53:22;;;;;;;;;;;4.50;99.90;;;;;;5094543;28;19912;-73
2022/12/29 12:55:50;;;;;;;;;;;4.50;99.90;;;;;;5094692;28;19912;-73
2022/12/29 12:58:24;;;;;;;;;;;4.50;99.90;;;;;;5094601;28;20351;-73
2022/12/29 13:00:49;;;;;;;;;;;4.50;99.90;;;;;;5094950;28;19947;-73
2022/12/29 13:03:28;;;;;;;;;;;4.50;99.90;;;;;;5094472;28;20371;-73
2022/12/29 13:06:32;;;;;;;;;;;4.60;99.90;;;;;;5094842;28;19962;-73
2022/12/29 13:09:00;;;;;;;;;;;4.60;99.90;;;;;;5012381;28;19910;-73
2022/12/29 13:11:29;;;;;;;;;;;4.60;99.90;;;;;;5012508;28;19910;-73
2022/12/29 13:14:20;;;;;;;;;;;4.60;99.90;;;;;;5053122;28;19912;-73
2022/12/29 13:16:46;;;;;;;;;;;4.60;99.90;;;;;;5094571;28;19908;-73
2022/12/29 13:19:17;;;;;;;;;;;4.60;99.90;;;;;;5094519;28;19998;-73
2022/12/29 13:22:01;;;;;;;;;;;4.60;99.90;;;;;;5094203;28;19908;-73
2022/12/29 13:24:44;;;;;;;;;;;4.50;99.90;;;;;;5094137;28;19914;-73
2022/12/29 13:27:16;;;;;;;;;;;4.50;99.90;;;;;;5076007;28;20423;-73
2022/12/29 13:29:49;;;;;;;;;;;4.50;99.90;;;;;;5094390;28;20267;-73
2022/12/29 13:32:15;;;;;;;;;;;4.50;99.90;;;;;;5094006;28;19919;-73
2022/12/29 13:34:43;;;;;;;;;;;4.40;99.90;;;;;;5094413;28;19916;-72
2022/12/29 13:37:12;;;;;;;;;;;4.40;99.90;;;;;;5075886;28;19908;-73
2022/12/29 13:39:40;;;;;;;;;;;4.40;99.90;;;;;;5093973;28;19956;-73
2022/12/29 13:42:07;;;;;;;;;;;4.40;99.90;;;;;;5075788;28;19974;-73
2022/12/29 13:44:38;;;;;;;;;;;4.50;99.90;;;;;;5093972;28;19915;-73
2022/12/29 13:47:27;;;;;;;;;;;4.60;99.90;;;;;;5094150;28;19908;-72
2022/12/29 13:49:53;;;;;;;;;;;4.60;99.90;;;;;;5093883;28;20030;-73
2022/12/29 13:52:24;;;;;;;;;;;4.70;99.90;;;;;;5074941;28;19908;-73
2022/12/29 13:55:19;;;;;;;;;;;4.70;99.90;;;;;;5093799;28;19916;-73
2022/12/29 13:57:49;;;;;;;;;;;4.70;99.90;;;;;;5093900;28;19908;-73
2022/12/29 14:00:16;;;;;;;;;;;4.70;99.90;;;;;;5093685;28;19912;-73
2022/12/29 14:02:45;;;;;;;;;;;4.60;99.90;;;;;;5093701;28;19908;-73
2022/12/29 14:05:22;;;;;;;;;;;4.60;99.90;;;;;;5093706;28;19916;-73
2022/12/29 14:07:49;;;;;;;;;;;4.60;99.90;;;;;;5075635;28;19912;-73
2022/12/29 14:10:44;;;;;;;;;;;4.50;99.90;;;;;;5093682;28;20014;-73
2022/12/29 14:13:14;;;;;;;;;;;4.50;99.90;;;;;;5075081;28;19912;-73
2022/12/29 14:15:42;;;;;;;;;;;4.50;99.90;;;;;;5093662;28;19915;-73
2022/12/29 14:18:16;;;;;;;;;;;4.40;99.90;;;;;;5093621;28;19912;-73
2022/12/29 14:20:48;;;;;;;;;;;4.40;99.90;;;;;;5094203;28;19958;-73
2022/12/29 14:23:13;;;;;;;;;;;4.40;99.90;;;;;;5080639;28;19914;-73
2022/12/29 14:25:55;;;;;;;;;;;4.40;99.90;;;;;;5093589;28;20010;-73
2022/12/29 14:28:26;;;;;;;;;;;4.40;99.90;;;;;;5075409;28;19934;-73
2022/12/29 14:30:53;;;;;;;;;;;4.30;99.90;;;;;;5093458;28;20355;-73
2022/12/29 14:33:19;;;;;;;;;;;4.30;99.90;;;;;;5093296;28;19916;-73
2022/12/29 14:35:49;;;;;;;;;;;4.30;99.90;;;;;;5093466;28;19965;-73
2022/12/29 14:38:22;;;;;;;;;;;4.30;99.90;;;;;;5093766;28;20282;-73
2022/12/29 14:40:48;;;;;;;;;;;4.30;99.90;;;;;;5093698;28;19920;-73
2022/12/29 14:43:18;;;;;;;;;;;4.30;99.90;;;;;;5075161;28;19961;-73
2022/12/29 14:45:51;;;;;;;;;;;4.20;99.90;;;;;;5075303;28;19999;-73
2022/12/29 14:48:34;;;;;;;;;;;4.20;99.90;;;;;;5075254;28;19908;-73
2022/12/29 14:51:00;;;;;;;;;;;4.10;99.90;;;;;;5093669;28;20002;-73
2022/12/29 14:53:45;;;;;;;;;;;4.10;99.90;;;;;;5093159;28;19969;-72
2022/12/29 14:56:12;;;;;;;;;;;4.00;99.90;;;;;;5093280;28;20429;-73
2022/12/29 14:58:52;;;;;;;;;;;3.90;99.90;;;;;;5095620;28;19912;-73
2022/12/29 15:01:17;;;;;;;;;;;3.80;99.90;;;;;;5113614;28;19912;-73
2022/12/29 15:03:50;;;;;;;;;;;3.70;99.90;;;;;;5112206;28;19930;-72
2022/12/29 15:06:18;;;;;;;;;;;3.60;99.90;;;;;;5116867;28;19912;-71